METAR Data
IDs: Format: Raw Decoded Include TAF

Data at: 0256 UTC 10 Dec 2022

METAR for:KRZT (Chillicothe/Ross Cnt, OH, US)
Text:KRZT 100235Z AUTO 00000KT 7SM OVC011 06/06 A3014 RMK AO2 PWINO
Temperature: 6.0°C ( 43°F)
Dewpoint: 6.0°C ( 43°F) [RH = 100%]
Pressure (altimeter):30.14 inches Hg (1020.7 mb)
Winds:calm
Visibility: 7 sm ( 11 km)
Ceiling:1100 feet AGL
Clouds: overcast cloud deck at 1100 feet AGL
QC Flag:automated observation with no human augmentation